createdAt,value
2019-04-01T00:01:21.902Z,99438.21
2019-04-01T00:03:51.343Z,99431.25
2019-04-01T00:06:20.832Z,99431.11
2019-04-01T00:08:50.298Z,99425.59
2019-04-01T00:11:20.723Z,99422.67
2019-04-01T00:13:50.757Z,99427.23
2019-04-01T00:16:20.287Z,99420.52
2019-04-01T00:19:02.376Z,99427.49
2019-04-01T00:21:20.808Z,99421.67
2019-04-01T00:23:50.286Z,99422.59
2019-04-01T00:26:19.774Z,99420.03
2019-04-01T00:28:49.206Z,99435.05
2019-04-01T00:31:19.177Z,99424.69
2019-04-01T00:33:48.617Z,99419.22
2019-04-01T00:36:18.099Z,99424.16
2019-04-01T00:38:47.556Z,99419.43
2019-04-01T00:41:16.992Z,99421.98
2019-04-01T00:43:57.333Z,99428.30
2019-04-01T00:46:26.796Z,99425.35
2019-04-01T00:48:56.262Z,99424.95
2019-04-01T00:51:26.360Z,99424.52
2019-04-01T00:53:56.850Z,99424.72
2019-04-01T00:56:26.250Z,99420.30
2019-04-01T00:58:57.119Z,99430.02
2019-04-01T01:01:26.600Z,99427.00
2019-04-01T01:03:58.798Z,99428.91
2019-04-01T01:06:28.439Z,99427.76
2019-04-01T01:08:57.871Z,99424.73
2019-04-01T01:11:28.805Z,99428.74
2019-04-01T01:13:58.269Z,99422.02
2019-04-01T01:16:27.645Z,99421.43
2019-04-01T01:18:57.415Z,99419.30
2019-04-01T01:21:27.305Z,99417.03
2019-04-01T01:23:57.626Z,99414.41
2019-04-01T01:26:27.119Z,99421.22
2019-04-01T01:28:56.595Z,99409.94
2019-04-01T01:31:25.981Z,99415.28
2019-04-01T01:33:55.732Z,99418.56
2019-04-01T01:36:25.251Z,99417.92
2019-04-01T01:38:54.668Z,99412.62
2019-04-01T01:41:24.055Z,99402.19
2019-04-01T01:43:53.553Z,99406.64
2019-04-01T01:46:24.360Z,99408.41
2019-04-01T01:48:53.812Z,99409.20
2019-04-01T01:51:23.734Z,99413.45
2019-04-01T01:53:53.183Z,99409.46
2019-04-01T01:56:22.690Z,99408.94
2019-04-01T01:58:52.553Z,99412.88
2019-04-01T02:01:22.438Z,99406.31
2019-04-01T02:03:51.871Z,99405.73
2019-04-01T02:06:21.316Z,99411.04
2019-04-01T02:08:50.747Z,99406.19
2019-04-01T02:11:20.229Z,99409.55
2019-04-01T02:13:49.841Z,99411.63
2019-04-01T02:16:19.211Z,99418.12
2019-04-01T02:18:49.042Z,99419.37
2019-04-01T02:21:18.731Z,99415.43
2019-04-01T02:23:48.150Z,99416.75
2019-04-01T02:26:17.541Z,99416.80
2019-04-01T02:28:47.481Z,99428.95
2019-04-01T02:31:19.738Z,99423.64
2019-04-01T02:33:49.371Z,99426.66
2019-04-01T02:36:18.823Z,99427.30
2019-04-01T02:38:48.234Z,99427.70
2019-04-01T02:41:17.713Z,99427.30
2019-04-01T02:43:47.648Z,99426.33
2019-04-01T02:46:17.060Z,99425.94
2019-04-01T02:48:46.476Z,99422.64
2019-04-01T02:51:16.008Z,99416.54
2019-04-01T02:53:45.439Z,99420.05
2019-04-01T02:56:15.228Z,99422.67
2019-04-01T02:58:44.707Z,99414.81
2019-04-01T03:01:14.191Z,99414.73
2019-04-01T03:03:43.646Z,99420.45
2019-04-01T03:06:13.043Z,99416.38
2019-04-01T03:08:42.910Z,99411.45
2019-04-01T03:11:12.397Z,99414.20
2019-04-01T03:13:41.864Z,99416.98
2019-04-01T03:16:11.247Z,99419.91
2019-04-01T03:18:40.697Z,99423.86
2019-04-01T03:21:10.168Z,99422.00
2019-04-01T03:23:39.960Z,99420.63
2019-04-01T03:26:09.456Z,99428.30
2019-04-01T03:28:39.080Z,99432.17
2019-04-01T03:31:10.448Z,99432.34
2019-04-01T03:33:39.889Z,99446.28
2019-04-01T03:36:09.454Z,99451.40
2019-04-01T03:38:39.316Z,99445.61
2019-04-01T03:41:08.701Z,99451.05
2019-04-01T03:43:39.579Z,99451.77
2019-04-01T03:46:09.608Z,99452.05
2019-04-01T03:48:39.041Z,99450.61
2019-04-01T03:51:08.631Z,99449.84
2019-04-01T03:53:39.059Z,99455.67
2019-04-01T03:56:09.049Z,99459.52
2019-04-01T03:58:41.215Z,99466.72
2019-04-01T04:01:10.793Z,99459.40
2019-04-01T04:03:40.933Z,99458.66
2019-04-01T04:06:10.821Z,99457.14
2019-04-01T04:08:40.303Z,99455.03
2019-04-01T04:11:10.589Z,99457.99
2019-04-01T04:13:40.329Z,99458.38
2019-04-01T04:16:10.010Z,99459.63
2019-04-01T04:18:40.205Z,99458.03
2019-04-01T04:21:13.339Z,99455.02
2019-04-01T04:23:42.753Z,99460.11
2019-04-01T04:26:12.637Z,99455.19
2019-04-01T04:28:42.131Z,99460.48
2019-04-01T04:31:11.615Z,99452.06
2019-04-01T04:33:42.318Z,99443.27
2019-04-01T04:36:11.561Z,99453.63
2019-04-01T04:38:41.001Z,99453.31
2019-04-01T04:41:10.454Z,99458.77
2019-04-01T04:43:41.162Z,99457.47
2019-04-01T04:46:10.671Z,99462.16
2019-04-01T04:48:42.630Z,99462.39
2019-04-01T04:51:12.481Z,99464.88
2019-04-01T04:53:41.906Z,99465.62
2019-04-01T04:56:12.640Z,99467.17
2019-04-01T04:58:46.385Z,99469.59
2019-04-01T05:01:15.915Z,99474.83
2019-04-01T05:03:48.000Z,99477.96
2019-04-01T05:06:18.345Z,99470.84
2019-04-01T05:08:50.247Z,99480.52
2019-04-01T05:11:19.970Z,99481.13
2019-04-01T05:13:54.394Z,99482.87
2019-04-01T05:16:23.940Z,99485.72
2019-04-01T05:18:55.398Z,99490.52
2019-04-01T05:21:28.857Z,99485.45
2019-04-01T05:23:59.884Z,99488.88
2019-04-01T05:26:33.882Z,99491.13
2019-04-01T05:29:09.134Z,99494.91
2019-04-01T05:31:52.217Z,99497.18
2019-04-01T05:34:22.736Z,99495.23
2019-04-01T05:36:52.105Z,99490.98
2019-04-01T05:39:22.258Z,99490.18
2019-04-01T05:41:52.377Z,99490.19
2019-04-01T05:44:23.554Z,99491.97
2019-04-01T05:46:53.099Z,99490.87
2019-04-01T05:49:23.158Z,99496.20
2019-04-01T05:51:52.752Z,99502.50
2019-04-01T05:54:23.343Z,99499.76
2019-04-01T05:56:52.852Z,99492.27
2019-04-01T05:59:22.486Z,99494.17
2019-04-01T06:01:52.136Z,99500.95
2019-04-01T06:04:21.693Z,99504.81
2019-04-01T06:06:51.310Z,99506.67
2019-04-01T06:09:20.899Z,99504.55
2019-04-01T06:11:50.384Z,99508.21
2019-04-01T06:14:20.048Z,99515.50
2019-04-01T06:16:49.872Z,99515.67
2019-04-01T06:19:19.256Z,99498.64
2019-04-01T06:21:48.692Z,99503.53
2019-04-01T06:24:18.547Z,99502.87
2019-04-01T06:26:48.138Z,99497.50
2019-04-01T06:29:17.750Z,99500.48
2019-04-01T06:31:47.374Z,99501.25
2019-04-01T06:34:16.883Z,99508.84
2019-04-01T06:36:46.438Z,99510.12
2019-04-01T06:39:16.055Z,99503.84
2019-04-01T06:41:45.529Z,99506.58
2019-04-01T06:44:14.951Z,99503.14
2019-04-01T06:46:44.703Z,99508.47
2019-04-01T06:49:14.151Z,99517.23
2019-04-01T06:51:43.626Z,99510.85
2019-04-01T06:54:13.385Z,99512.08
2019-04-01T06:56:42.946Z,99509.64
2019-04-01T06:59:12.386Z,99506.34
2019-04-01T07:01:41.935Z,99500.08
2019-04-01T07:04:11.615Z,99506.01
2019-04-01T07:06:41.027Z,99503.80
2019-04-01T07:09:10.545Z,99505.14
2019-04-01T07:11:41.004Z,99504.61
2019-04-01T07:14:10.455Z,99505.64
2019-04-01T07:16:40.252Z,99509.10
2019-04-01T07:19:09.832Z,99508.05
2019-04-01T07:21:39.360Z,99505.91
2019-04-01T07:24:09.015Z,99509.95
2019-04-01T07:26:38.594Z,99513.76
2019-04-01T07:29:08.342Z,99504.80
2019-04-01T07:31:39.415Z,99498.11
2019-04-01T07:34:08.881Z,99498.78
2019-04-01T07:36:38.401Z,99498.70
2019-04-01T07:39:08.408Z,99497.95
2019-04-01T07:41:37.846Z,99494.80
2019-04-01T07:44:07.276Z,99497.17
2019-04-01T07:46:36.969Z,99503.96
2019-04-01T07:49:07.598Z,99504.02
2019-04-01T07:51:38.692Z,99501.78
2019-04-01T07:54:08.350Z,99498.20
2019-04-01T07:56:37.943Z,99496.53
2019-04-01T07:59:07.594Z,99490.02
2019-04-01T08:01:37.367Z,99493.61
2019-04-01T08:04:06.918Z,99491.19
2019-04-01T08:06:36.593Z,99485.80
2019-04-01T08:09:07.208Z,99485.02
2019-04-01T08:11:36.587Z,99475.58
2019-04-01T08:14:06.171Z,99475.36
2019-04-01T08:16:35.817Z,99471.20
2019-04-01T08:19:05.515Z,99473.57
2019-04-01T08:21:34.934Z,99470.91
2019-04-01T08:24:04.563Z,99473.09
2019-04-01T08:26:34.180Z,99468.64
2019-04-01T08:29:03.760Z,99469.02
2019-04-01T08:31:33.443Z,99473.08
2019-04-01T08:34:02.886Z,99474.00
2019-04-01T08:36:32.579Z,99462.08
2019-04-01T08:39:02.171Z,99466.50
2019-04-01T08:41:31.658Z,99456.83
2019-04-01T08:44:03.270Z,99462.16
2019-04-01T08:46:32.399Z,99457.25
2019-04-01T08:49:01.876Z,99456.38
2019-04-01T08:51:31.475Z,99452.86
2019-04-01T08:54:01.077Z,99451.87
2019-04-01T08:56:30.669Z,99447.97
2019-04-01T08:59:00.213Z,99448.69
2019-04-01T09:01:35.328Z,99440.75
2019-04-01T09:04:01.068Z,99434.29
2019-04-01T09:06:31.458Z,99438.47
2019-04-01T09:09:01.640Z,99438.41
2019-04-01T09:11:31.142Z,99424.41
2019-04-01T09:14:00.697Z,99433.29
2019-04-01T09:16:30.867Z,99429.48
2019-04-01T09:19:00.325Z,99433.44
2019-04-01T09:21:29.771Z,99430.14
2019-04-01T09:23:59.313Z,99422.36
2019-04-01T09:26:28.872Z,99415.62
2019-04-01T09:28:58.326Z,99415.62
2019-04-01T09:31:27.740Z,99410.45
2019-04-01T09:33:57.236Z,99409.58
2019-04-01T09:36:26.719Z,99405.03
2019-04-01T09:38:56.368Z,99398.58
2019-04-01T09:41:25.767Z,99397.08
2019-04-01T09:43:55.219Z,99397.08
2019-04-01T09:46:24.931Z,99399.47
2019-04-01T09:48:54.390Z,99396.02
2019-04-01T09:51:23.871Z,99389.31
2019-04-01T09:53:53.350Z,99393.00
2019-04-01T09:56:32.446Z,99395.88
2019-04-01T09:59:02.007Z,99393.48
2019-04-01T10:01:31.453Z,99375.19
2019-04-01T10:04:01.005Z,99375.19
2019-04-01T10:06:30.602Z,99377.92
2019-04-01T10:09:00.045Z,99373.16
2019-04-01T10:11:29.528Z,99380.01
2019-04-01T10:13:59.169Z,99377.53
2019-04-01T10:16:28.822Z,99377.45
2019-04-01T10:18:58.287Z,99372.50
2019-04-01T10:21:27.868Z,99372.97
2019-04-01T10:23:57.290Z,99366.40
2019-04-01T10:26:26.735Z,99363.70
2019-04-01T10:28:56.379Z,99360.22
2019-04-01T10:31:25.851Z,99366.77
2019-04-01T10:33:55.695Z,99357.84
2019-04-01T10:36:25.122Z,99353.70
2019-04-01T10:38:54.567Z,99350.16
2019-04-01T10:41:23.977Z,99344.42
2019-04-01T10:43:53.707Z,99342.55
2019-04-01T10:46:23.208Z,99344.54
2019-04-01T10:48:52.701Z,99346.45
2019-04-01T10:51:22.205Z,99334.65
2019-04-01T10:53:51.658Z,99340.94
2019-04-01T10:56:21.172Z,99334.08
2019-04-01T10:58:50.845Z,99334.84
2019-04-01T11:01:20.338Z,99337.76
2019-04-01T11:03:49.855Z,99330.17
2019-04-01T11:06:19.398Z,99339.41
2019-04-01T11:08:48.896Z,99321.66
2019-04-01T11:11:18.410Z,99317.34
2019-04-01T11:13:51.624Z,99312.92
2019-04-01T11:16:19.763Z,99317.22
2019-04-01T11:18:49.236Z,99303.20
2019-04-01T11:21:18.710Z,99304.78
2019-04-01T11:23:48.156Z,99294.89
2019-04-01T11:26:17.609Z,99301.25
2019-04-01T11:28:47.091Z,99298.92
2019-04-01T11:31:16.607Z,99302.25
2019-04-01T11:33:46.050Z,99303.83
2019-04-01T11:36:15.508Z,99298.88
2019-04-01T11:38:44.937Z,99295.27
2019-04-01T11:41:14.515Z,99294.63
2019-04-01T11:43:44.246Z,99298.11
2019-04-01T11:46:13.672Z,99297.11
2019-04-01T11:48:43.321Z,99288.55
2019-04-01T11:51:12.983Z,99293.30
2019-04-01T11:53:43.836Z,99286.14
2019-04-01T11:56:13.236Z,99287.35
2019-04-01T11:58:42.834Z,99286.73
2019-04-01T12:01:12.259Z,99276.34
2019-04-01T12:03:41.757Z,99282.71
2019-04-01T12:06:11.696Z,99281.87
2019-04-01T12:08:41.237Z,99275.01
2019-04-01T12:11:10.643Z,99277.81
2019-04-01T12:13:40.210Z,99273.43
2019-04-01T12:16:09.691Z,99284.47
2019-04-01T12:18:39.137Z,99275.66
2019-04-01T12:21:08.610Z,99272.54
2019-04-01T12:23:38.009Z,99280.38
2019-04-01T12:26:14.920Z,99261.92
2019-04-01T12:28:38.721Z,99264.23
2019-04-01T12:31:08.131Z,99261.80
2019-04-01T12:33:37.578Z,99255.66
2019-04-01T12:36:11.442Z,99258.94
2019-04-01T12:38:39.038Z,99252.03
2019-04-01T12:41:08.462Z,99241.28
2019-04-01T12:43:37.981Z,99238.16
2019-04-01T12:46:07.428Z,99233.16
2019-04-01T12:48:36.888Z,99231.31
2019-04-01T12:51:06.682Z,99222.83
2019-04-01T12:53:36.114Z,99226.02
2019-04-01T12:56:05.697Z,99226.67
2019-04-01T12:58:35.162Z,99221.30
2019-04-01T13:01:04.779Z,99212.85
2019-04-01T13:03:34.183Z,99213.41
2019-04-01T13:06:03.603Z,99208.14
2019-04-01T13:08:33.124Z,99206.50
2019-04-01T13:11:02.589Z,99207.68
2019-04-01T13:13:32.057Z,99196.55
2019-04-01T13:16:01.437Z,99194.61
2019-04-01T13:18:30.882Z,99197.52
2019-04-01T13:21:00.545Z,99201.55
2019-04-01T13:23:29.929Z,99192.51
2019-04-01T13:25:59.305Z,99199.11
2019-04-01T13:28:28.786Z,99190.88
2019-04-01T13:30:58.297Z,99189.25
2019-04-01T13:33:27.719Z,99190.94
2019-04-01T13:35:57.129Z,99188.03
2019-04-01T13:38:26.705Z,99190.21
2019-04-01T13:40:56.192Z,99191.50
2019-04-01T13:43:25.751Z,99194.17
2019-04-01T13:45:55.230Z,99182.59
2019-04-01T13:48:24.673Z,99188.64
2019-04-01T13:50:54.196Z,99179.57
2019-04-01T13:53:23.725Z,99180.45
2019-04-01T13:55:53.116Z,99182.45
2019-04-01T13:58:23.040Z,99172.38
2019-04-01T14:00:52.575Z,99175.15
2019-04-01T14:03:22.053Z,99184.20
2019-04-01T14:05:56.087Z,99184.07
2019-04-01T14:08:25.561Z,99181.11
2019-04-01T14:10:54.941Z,99179.17
2019-04-01T14:13:24.607Z,99185.56
2019-04-01T14:15:54.094Z,99179.84
2019-04-01T14:18:23.540Z,99175.53
2019-04-01T14:20:52.992Z,99179.06
2019-04-01T14:23:23.467Z,99173.90
2019-04-01T14:25:53.151Z,99176.55
2019-04-01T14:28:22.764Z,99171.84
2019-04-01T14:30:52.188Z,99176.53
2019-04-01T14:33:21.631Z,99178.22
2019-04-01T14:35:51.168Z,99173.67
2019-04-01T14:38:20.586Z,99177.54
2019-04-01T14:40:50.004Z,99181.23
2019-04-01T14:43:19.605Z,99181.80
2019-04-01T14:45:48.998Z,99181.40
2019-04-01T14:48:18.422Z,99178.55
2019-04-01T14:50:47.923Z,99174.68
2019-04-01T14:53:17.361Z,99172.13
2019-04-01T14:55:46.738Z,99175.53
2019-04-01T14:58:16.211Z,99173.80
2019-04-01T15:00:45.739Z,99175.97
2019-04-01T15:03:15.142Z,99176.98
2019-04-01T15:05:44.559Z,99179.82
2019-04-01T15:08:14.396Z,99177.32
2019-04-01T15:10:45.021Z,99175.41
2019-04-01T15:13:14.457Z,99174.67
2019-04-01T15:15:43.864Z,99175.17
2019-04-01T15:18:13.403Z,99184.67
2019-04-01T15:20:42.838Z,99180.37
2019-04-01T15:23:12.267Z,99183.83
2019-04-01T15:25:41.727Z,99177.84
2019-04-01T15:28:11.190Z,99183.25
2019-04-01T15:30:40.574Z,99174.34
2019-04-01T15:33:10.000Z,99183.25
2019-04-01T15:35:39.498Z,99181.06
2019-04-01T15:38:09.088Z,99179.54
2019-04-01T15:40:38.518Z,99180.88
2019-04-01T15:43:09.116Z,99189.77
2019-04-01T15:45:42.673Z,99191.13
2019-04-01T15:48:13.096Z,99194.25
2019-04-01T15:50:45.521Z,99203.31
2019-04-01T15:53:16.847Z,99201.77
2019-04-01T15:55:46.443Z,99206.05
2019-04-01T15:58:16.459Z,99199.92
2019-04-01T16:00:50.949Z,99194.88
2019-04-01T16:03:22.046Z,99200.41
2019-04-01T16:05:51.830Z,99203.12
2019-04-01T16:08:21.610Z,99211.47
2019-04-01T16:10:51.331Z,99207.55
2019-04-01T16:13:20.733Z,99211.28
2019-04-01T16:15:50.455Z,99213.12
2019-04-01T16:18:19.978Z,99219.55
2019-04-01T16:20:49.534Z,99221.39
2019-04-01T16:23:19.425Z,99217.88
2019-04-01T16:25:48.972Z,99212.72
2019-04-01T16:28:18.469Z,99220.29
2019-04-01T16:30:50.518Z,99221.94
2019-04-01T16:33:19.939Z,99231.22
2019-04-01T16:35:49.414Z,99227.89
2019-04-01T16:38:18.949Z,99234.56
2019-04-01T16:40:52.339Z,99234.09
2019-04-01T16:43:20.732Z,99236.02
2019-04-01T16:45:50.430Z,99236.31
2019-04-01T16:48:19.852Z,99247.37
2019-04-01T16:50:49.291Z,99247.17
2019-04-01T16:53:19.386Z,99252.95
2019-04-01T16:55:49.028Z,99254.88
2019-04-01T16:58:18.408Z,99261.00
2019-04-01T17:00:50.719Z,99257.98
2019-04-01T17:03:20.611Z,99263.56
2019-04-01T17:05:50.291Z,99265.55
2019-04-01T17:08:19.721Z,99269.83
2019-04-01T17:10:49.967Z,99280.32
2019-04-01T17:13:19.454Z,99278.48
2019-04-01T17:15:49.291Z,99287.65
2019-04-01T17:18:18.683Z,99286.23
2019-04-01T17:20:48.618Z,99289.93
2019-04-01T17:23:18.066Z,99295.70
2019-04-01T17:25:47.527Z,99295.70
2019-04-01T17:28:22.303Z,99306.13
2019-04-01T17:30:54.202Z,99305.68
2019-04-01T17:33:24.500Z,99311.09
2019-04-01T17:35:58.434Z,99321.83
2019-04-01T17:38:31.207Z,99321.03
2019-04-01T17:41:15.532Z,99326.47
2019-04-01T17:43:48.041Z,99336.60
2019-04-01T17:46:17.740Z,99344.23
2019-04-01T17:48:50.024Z,99349.50
2019-04-01T17:51:19.585Z,99354.75
2019-04-01T17:53:50.132Z,99362.30
2019-04-01T17:56:20.611Z,99366.58
2019-04-01T17:58:50.512Z,99367.02
2019-04-01T18:01:20.579Z,99373.08
2019-04-01T18:03:51.043Z,99376.77
2019-04-01T18:06:23.456Z,99374.94
2019-04-01T18:08:52.870Z,99379.20
2019-04-01T18:11:22.695Z,99388.28
2019-04-01T18:13:53.335Z,99386.85
2019-04-01T18:16:22.887Z,99392.06
2019-04-01T18:18:52.764Z,99394.47
2019-04-01T18:21:22.184Z,99396.88
2019-04-01T18:23:51.842Z,99403.02
2019-04-01T18:26:21.730Z,99402.21
2019-04-01T18:28:51.159Z,99423.34
2019-04-01T18:31:20.597Z,99417.54
2019-04-01T18:33:56.462Z,99418.75
2019-04-01T18:36:22.986Z,99424.08
2019-04-01T18:38:52.485Z,99425.55
2019-04-01T18:41:22.090Z,99429.70
2019-04-01T18:43:52.062Z,99424.25
2019-04-01T18:46:23.333Z,99434.54
2019-04-01T18:48:52.805Z,99437.94
2019-04-01T18:51:22.231Z,99440.50
2019-04-01T18:53:51.750Z,99446.19
2019-04-01T18:56:21.362Z,99446.45
2019-04-01T18:58:50.824Z,99447.91
2019-04-01T19:01:20.285Z,99453.66
2019-04-01T19:03:50.412Z,99459.13
2019-04-01T19:06:19.941Z,99460.31
2019-04-01T19:08:49.381Z,99468.07
2019-04-01T19:11:19.014Z,99461.84
2019-04-01T19:13:48.561Z,99468.38
2019-04-01T19:16:18.122Z,99475.49
2019-04-01T19:18:48.268Z,99476.25
2019-04-01T19:21:18.163Z,99481.91
2019-04-01T19:23:47.605Z,99481.18
2019-04-01T19:26:17.108Z,99485.38
2019-04-01T19:28:47.231Z,99486.47
2019-04-01T19:31:17.344Z,99490.05
2019-04-01T19:33:46.802Z,99487.23
2019-04-01T19:36:16.255Z,99488.63
2019-04-01T19:38:45.771Z,99488.98
2019-04-01T19:41:15.330Z,99484.09
2019-04-01T19:43:45.261Z,99486.96
2019-04-01T19:46:15.250Z,99486.78
2019-04-01T19:48:44.945Z,99487.42
2019-04-01T19:51:14.472Z,99485.79
2019-04-01T19:53:48.316Z,99486.56
2019-04-01T19:56:17.786Z,99485.63
2019-04-01T19:58:47.335Z,99489.89
2019-04-01T20:01:16.740Z,99503.50
2019-04-01T20:03:46.350Z,99502.73
2019-04-01T20:06:16.219Z,99501.11
2019-04-01T20:08:48.180Z,99502.08
2019-04-01T20:11:17.107Z,99503.58
2019-04-01T20:13:46.660Z,99504.51
2019-04-01T20:16:16.403Z,99500.86
2019-04-01T20:18:45.814Z,99503.28
2019-04-01T20:21:15.268Z,99505.77
2019-04-01T20:23:44.812Z,99507.15
2019-04-01T20:26:14.322Z,99506.27
2019-04-01T20:28:44.209Z,99505.27
2019-04-01T20:31:13.712Z,99512.50
2019-04-01T20:33:43.235Z,99517.27
2019-04-01T20:36:12.770Z,99519.72
2019-04-01T20:38:42.258Z,99516.38
2019-04-01T20:41:11.798Z,99519.38
2019-04-01T20:43:49.863Z,99526.40
2019-04-01T20:46:19.700Z,99520.84
2019-04-01T20:48:49.219Z,99520.20
2019-04-01T20:51:18.987Z,99518.52
2019-04-01T20:53:51.168Z,99521.84
2019-04-01T20:56:20.255Z,99523.81
2019-04-01T20:58:49.842Z,99522.48
2019-04-01T21:01:19.392Z,99533.03
2019-04-01T21:03:48.833Z,99531.13
2019-04-01T21:06:18.867Z,99534.19
2019-04-01T21:08:48.521Z,99539.39
2019-04-01T21:11:18.090Z,99542.45
2019-04-01T21:13:47.574Z,99542.03
2019-04-01T21:16:17.012Z,99543.56
2019-04-01T21:18:48.079Z,99546.85
2019-04-01T21:21:17.744Z,99553.02
2019-04-01T21:23:47.290Z,99553.39
2019-04-01T21:26:16.844Z,99548.19
2019-04-01T21:28:46.309Z,99551.13
2019-04-01T21:31:16.347Z,99551.20
2019-04-01T21:33:46.865Z,99549.89
2019-04-01T21:36:16.419Z,99550.07
2019-04-01T21:38:45.852Z,99550.34
2019-04-01T21:41:15.309Z,99554.68
2019-04-01T21:43:45.363Z,99558.34
2019-04-01T21:46:14.900Z,99564.66
2019-04-01T21:48:44.300Z,99556.20
2019-04-01T21:51:13.835Z,99560.66
2019-04-01T21:53:43.359Z,99564.30
2019-04-01T21:56:12.908Z,99573.61
2019-04-01T21:58:42.375Z,99576.28
2019-04-01T22:01:14.358Z,99578.17
2019-04-01T22:03:43.453Z,99585.89
2019-04-01T22:06:12.946Z,99589.16
2019-04-01T22:08:42.504Z,99596.38
2019-04-01T22:11:12.138Z,99589.44
2019-04-01T22:13:43.456Z,99589.30
2019-04-01T22:16:14.113Z,99596.77
2019-04-01T22:18:44.762Z,99600.25
2019-04-01T22:21:15.551Z,99604.92
2019-04-01T22:23:45.061Z,99610.56
2019-04-01T22:26:14.487Z,99611.91
2019-04-01T22:28:44.078Z,99613.55
2019-04-01T22:31:15.190Z,99612.20
2019-04-01T22:33:44.746Z,99612.14
2019-04-01T22:36:14.257Z,99616.80
2019-04-01T22:38:43.779Z,99616.59
2019-04-01T22:41:13.220Z,99622.90
2019-04-01T22:43:42.995Z,99614.90
2019-04-01T22:46:18.203Z,99620.52
2019-04-01T22:48:49.254Z,99617.71
2019-04-01T22:51:18.716Z,99616.13
2019-04-01T22:53:48.268Z,99619.87
2019-04-01T22:56:19.397Z,99617.65
2019-04-01T22:58:48.847Z,99621.41
2019-04-01T23:01:18.275Z,99619.96
2019-04-01T23:03:47.863Z,99618.72
2019-04-01T23:06:17.369Z,99615.03
2019-04-01T23:08:46.821Z,99618.94
2019-04-01T23:11:16.435Z,99622.05
2019-04-01T23:13:45.983Z,99618.72
2019-04-01T23:16:15.500Z,99622.80
2019-04-01T23:18:44.973Z,99631.42
2019-04-01T23:21:14.497Z,99631.14
2019-04-01T23:23:43.917Z,99636.90
2019-04-01T23:26:13.437Z,99640.00
2019-04-01T23:28:42.985Z,99638.13
2019-04-01T23:31:12.527Z,99642.81
2019-04-01T23:33:42.185Z,99641.24
2019-04-01T23:36:12.332Z,99648.57
2019-04-01T23:38:42.229Z,99643.37
2019-04-01T23:41:12.018Z,99642.60
2019-04-01T23:43:41.457Z,99648.60
2019-04-01T23:46:10.887Z,99649.59
2019-04-01T23:48:42.080Z,99642.30
2019-04-01T23:51:11.768Z,99644.01
2019-04-01T23:53:41.216Z,99643.45
2019-04-01T23:56:10.690Z,99644.31
2019-04-01T23:58:40.208Z,99652.31
